createdAt,value
2018-06-21T00:00:13.631Z,98.30
2018-06-21T00:02:41.281Z,98.80
2018-06-21T00:05:08.925Z,99.20
2018-06-21T00:07:36.580Z,99.50
2018-06-21T00:10:04.368Z,99.70
2018-06-21T00:12:32.242Z,99.90
2018-06-21T00:14:59.825Z,99.90
2018-06-21T00:17:27.442Z,99.90
2018-06-21T00:19:55.071Z,99.90
2018-06-21T00:22:22.645Z,99.90
2018-06-21T00:24:50.293Z,99.90
2018-06-21T00:27:17.986Z,99.90
2018-06-21T00:29:45.673Z,99.90
2018-06-21T00:32:13.235Z,99.90
2018-06-21T00:34:40.989Z,99.90
2018-06-21T00:37:08.584Z,99.90
2018-06-21T00:39:36.613Z,99.90
2018-06-21T00:42:04.227Z,99.90
2018-06-21T00:44:31.777Z,99.90
2018-06-21T00:46:59.488Z,99.90
2018-06-21T00:49:27.069Z,99.90
2018-06-21T00:51:54.774Z,99.90
2018-06-21T00:54:22.317Z,99.90
2018-06-21T00:56:49.948Z,99.90
2018-06-21T00:59:17.588Z,99.90
2018-06-21T01:01:45.220Z,99.90
2018-06-21T01:04:13.921Z,99.90
2018-06-21T01:06:42.042Z,99.90
2018-06-21T01:09:10.026Z,99.90
2018-06-21T01:11:37.983Z,99.90
2018-06-21T01:14:12.422Z,99.90
2018-06-21T01:16:40.179Z,99.90
2018-06-21T01:19:07.987Z,99.90
2018-06-21T01:21:35.825Z,99.90
2018-06-21T01:24:03.704Z,99.90
2018-06-21T01:26:31.608Z,99.90
2018-06-21T01:28:59.490Z,99.90
2018-06-21T01:31:27.361Z,99.90
2018-06-21T01:33:55.620Z,99.90
2018-06-21T01:36:23.447Z,99.90
2018-06-21T01:38:51.326Z,99.90
2018-06-21T01:41:19.133Z,99.90
2018-06-21T01:43:47.054Z,99.90
2018-06-21T01:46:14.890Z,99.90
2018-06-21T01:48:42.778Z,99.90
2018-06-21T01:51:10.638Z,99.90
2018-06-21T01:53:38.444Z,99.90
2018-06-21T01:56:06.351Z,99.90
2018-06-21T01:58:34.252Z,99.90
2018-06-21T02:01:02.142Z,99.90
2018-06-21T02:03:29.959Z,99.90
2018-06-21T02:05:57.909Z,99.90
2018-06-21T02:08:25.706Z,99.90
2018-06-21T02:10:53.570Z,99.90
2018-06-21T02:13:21.387Z,99.90
2018-06-21T02:15:49.288Z,99.90
2018-06-21T02:18:17.069Z,99.90
2018-06-21T02:20:44.950Z,99.90
2018-06-21T02:23:12.790Z,99.90
2018-06-21T02:25:40.675Z,99.90
2018-06-21T02:28:08.547Z,99.90
2018-06-21T02:30:36.401Z,99.90
2018-06-21T02:35:31.938Z,99.90
2018-06-21T02:37:59.870Z,99.90
2018-06-21T02:40:27.683Z,99.90
2018-06-21T02:42:55.539Z,99.90
2018-06-21T02:45:23.397Z,99.90
2018-06-21T02:47:51.227Z,99.90
2018-06-21T02:50:19.061Z,99.90
2018-06-21T02:52:46.919Z,99.90
2018-06-21T02:55:14.735Z,99.90
2018-06-21T02:57:42.560Z,99.90
2018-06-21T03:00:10.462Z,99.90
2018-06-21T03:02:38.328Z,99.90
2018-06-21T03:05:06.091Z,99.90
2018-06-21T03:07:33.967Z,99.90
2018-06-21T03:10:01.787Z,99.90
2018-06-21T03:12:29.690Z,99.90
2018-06-21T03:14:57.529Z,99.90
2018-06-21T03:17:25.342Z,99.90
2018-06-21T03:19:53.166Z,99.90
2018-06-21T03:22:21.035Z,99.90
2018-06-21T03:24:48.867Z,99.90
2018-06-21T03:27:16.649Z,99.90
2018-06-21T03:29:44.519Z,99.90
2018-06-21T03:32:12.366Z,99.90
2018-06-21T03:34:40.247Z,99.90
2018-06-21T03:37:08.118Z,99.90
2018-06-21T03:39:35.997Z,99.90
2018-06-21T03:42:03.934Z,99.90
2018-06-21T03:44:31.798Z,99.90
2018-06-21T03:46:59.661Z,99.90
2018-06-21T03:49:27.434Z,99.90
2018-06-21T03:51:55.370Z,99.90
2018-06-21T03:54:23.223Z,99.90
2018-06-21T03:56:51.101Z,99.90
2018-06-21T03:59:18.982Z,99.90
2018-06-21T04:01:46.864Z,99.90
2018-06-21T04:04:14.759Z,99.90
2018-06-21T04:06:42.579Z,99.90
2018-06-21T04:09:10.915Z,99.90
2018-06-21T04:11:39.014Z,99.90
2018-06-21T04:14:07.000Z,99.90
2018-06-21T04:16:35.243Z,99.90
2018-06-21T04:19:03.042Z,99.90
2018-06-21T04:21:31.098Z,99.90
2018-06-21T04:23:59.018Z,99.90
2018-06-21T04:26:26.877Z,99.90
2018-06-21T04:28:54.738Z,99.90
2018-06-21T04:31:22.634Z,99.90
2018-06-21T04:33:50.496Z,99.90
2018-06-21T04:36:18.336Z,99.90
2018-06-21T04:38:46.184Z,99.90
2018-06-21T04:41:13.949Z,99.90
2018-06-21T04:43:41.840Z,99.90
2018-06-21T04:46:09.641Z,99.90
2018-06-21T04:48:37.521Z,99.90
2018-06-21T04:51:05.559Z,99.90
2018-06-21T04:56:01.145Z,99.90
2018-06-21T04:58:28.970Z,99.90
2018-06-21T05:00:56.885Z,99.90
2018-06-21T05:03:24.736Z,99.90
2018-06-21T05:05:52.572Z,99.90
2018-06-21T05:08:20.549Z,99.90
2018-06-21T05:10:48.478Z,99.90
2018-06-21T05:13:16.374Z,99.90
2018-06-21T05:15:44.324Z,99.90
2018-06-21T05:18:12.311Z,99.90
2018-06-21T05:20:40.194Z,99.90
2018-06-21T05:23:08.045Z,99.90
2018-06-21T05:25:35.939Z,99.90
2018-06-21T05:28:03.790Z,99.90
2018-06-21T05:30:31.641Z,99.90
2018-06-21T05:35:27.399Z,99.90
2018-06-21T05:37:55.262Z,99.90
2018-06-21T05:40:37.536Z,99.90
2018-06-21T05:43:05.638Z,99.90
2018-06-21T05:45:34.146Z,99.90
2018-06-21T05:48:02.983Z,99.90
2018-06-21T05:50:31.902Z,99.90
2018-06-21T05:53:00.240Z,99.90
2018-06-21T05:55:28.979Z,99.90
2018-06-21T05:57:56.846Z,99.90
2018-06-21T06:00:24.768Z,99.90
2018-06-21T06:02:52.654Z,99.90
2018-06-21T06:05:20.910Z,99.90
2018-06-21T06:07:48.970Z,99.90
2018-06-21T06:10:16.831Z,99.90
2018-06-21T06:12:44.759Z,99.90
2018-06-21T06:15:12.621Z,99.90
2018-06-21T06:17:40.518Z,99.90
2018-06-21T06:20:08.493Z,99.90
2018-06-21T06:22:36.306Z,99.90
2018-06-21T06:25:04.311Z,99.90
2018-06-21T06:27:32.262Z,99.90
2018-06-21T06:30:00.134Z,99.90
2018-06-21T06:32:28.170Z,99.90
2018-06-21T06:34:56.022Z,99.90
2018-06-21T06:39:51.624Z,99.90
2018-06-21T06:42:19.587Z,99.90
2018-06-21T06:44:47.561Z,99.90
2018-06-21T06:47:15.593Z,99.90
2018-06-21T06:49:43.546Z,99.90
2018-06-21T06:52:11.563Z,99.90
2018-06-21T06:54:39.576Z,99.90
2018-06-21T06:57:07.475Z,99.90
2018-06-21T06:59:35.383Z,99.90
2018-06-21T07:02:03.480Z,99.90
2018-06-21T07:06:59.066Z,99.90
2018-06-21T07:09:27.012Z,99.90
2018-06-21T07:11:54.852Z,99.90
2018-06-21T07:14:22.732Z,99.90
2018-06-21T07:16:50.526Z,99.90
2018-06-21T07:19:18.416Z,99.90
2018-06-21T07:21:46.218Z,99.90
2018-06-21T07:24:14.066Z,99.90
2018-06-21T07:26:42.005Z,99.90
2018-06-21T07:29:09.910Z,99.90
2018-06-21T07:31:37.945Z,99.90
2018-06-21T07:34:06.052Z,99.90
2018-06-21T07:36:33.995Z,99.90
2018-06-21T07:39:02.056Z,99.80
2018-06-21T07:41:29.952Z,94.90
2018-06-21T07:43:58.062Z,90.60
2018-06-21T07:46:26.133Z,87.80
2018-06-21T07:48:54.027Z,87.60
2018-06-21T07:51:21.923Z,85.60
2018-06-21T07:53:49.728Z,83.10
2018-06-21T07:56:17.599Z,84.50
2018-06-21T07:58:45.588Z,84.80
2018-06-21T08:01:13.503Z,85.00
2018-06-21T08:03:41.363Z,85.00
2018-06-21T08:06:09.287Z,80.30
2018-06-21T08:08:37.161Z,77.30
2018-06-21T08:11:05.078Z,74.30
2018-06-21T08:13:33.001Z,70.60
2018-06-21T08:16:00.882Z,65.70
2018-06-21T08:20:56.487Z,58.30
2018-06-21T08:23:24.343Z,59.60
2018-06-21T08:25:52.207Z,61.50
2018-06-21T08:28:20.095Z,62.80
2018-06-21T08:30:48.156Z,65.30
2018-06-21T08:33:16.185Z,65.70
2018-06-21T08:35:44.187Z,68.90
2018-06-21T08:38:12.000Z,71.30
2018-06-21T08:40:39.838Z,73.70
2018-06-21T08:43:07.643Z,72.10
2018-06-21T08:45:35.707Z,67.40
2018-06-21T08:48:03.574Z,62.60
2018-06-21T08:50:31.502Z,61.80
2018-06-21T08:52:59.347Z,56.60
2018-06-21T08:55:27.278Z,54.20
2018-06-21T08:57:55.180Z,55.40
2018-06-21T09:00:23.182Z,56.80
2018-06-21T09:02:51.088Z,57.30
2018-06-21T09:05:19.070Z,58.10
2018-06-21T09:07:47.118Z,57.50
2018-06-21T09:10:14.960Z,58.40
2018-06-21T09:12:42.797Z,59.30
2018-06-21T09:15:11.198Z,60.40
2018-06-21T09:17:39.138Z,62.20
2018-06-21T09:20:07.063Z,58.40
2018-06-21T09:22:34.997Z,54.00
2018-06-21T09:25:03.054Z,48.50
2018-06-21T09:27:31.456Z,44.10
2018-06-21T09:32:28.935Z,40.40
2018-06-21T09:34:56.882Z,42.90
2018-06-21T09:37:30.418Z,45.60
2018-06-21T10:31:14.871Z,36.40
2018-06-21T10:33:42.566Z,36.50
2018-06-21T10:36:10.253Z,37.90
2018-06-21T10:38:37.878Z,36.90
2018-06-21T10:41:05.903Z,34.00
2018-06-21T10:43:34.298Z,33.00
2018-06-21T10:46:02.079Z,30.90
2018-06-21T10:48:29.662Z,29.70
2018-06-21T10:50:57.269Z,29.50
2018-06-21T10:53:25.059Z,29.40
2018-06-21T10:55:52.822Z,29.60
2018-06-21T10:58:20.498Z,30.70
2018-06-21T11:03:16.030Z,33.00
2018-06-21T11:05:43.686Z,29.10
2018-06-21T11:08:11.285Z,28.40
2018-06-21T11:10:38.945Z,28.30
2018-06-21T11:13:06.561Z,28.40
2018-06-21T11:15:34.225Z,28.80
2018-06-21T11:18:01.835Z,30.10
2018-06-21T11:20:29.461Z,29.90
2018-06-21T11:22:57.109Z,29.00
2018-06-21T11:25:24.825Z,28.10
2018-06-21T11:27:52.413Z,28.30
2018-06-21T11:30:20.039Z,29.60
2018-06-21T11:32:47.695Z,29.70
2018-06-21T11:35:15.356Z,30.10
2018-06-21T11:37:43.079Z,30.20
2018-06-21T11:40:10.666Z,29.00
2018-06-21T11:42:38.332Z,28.30
2018-06-21T11:45:06.257Z,28.40
2018-06-21T11:47:33.948Z,29.20
2018-06-21T11:50:11.577Z,28.70
2018-06-21T11:52:39.155Z,29.70
2018-06-21T11:55:06.816Z,29.30
2018-06-21T11:57:34.456Z,29.90
2018-06-21T12:00:02.177Z,29.00
2018-06-21T12:02:29.890Z,29.40
2018-06-21T12:04:57.666Z,30.00
2018-06-21T12:07:25.701Z,30.60
2018-06-21T12:09:53.526Z,31.40
2018-06-21T12:12:21.842Z,33.20
2018-06-21T12:14:49.659Z,35.10
2018-06-21T12:17:17.313Z,34.40
2018-06-21T12:19:45.014Z,32.70
2018-06-21T12:22:12.682Z,33.60
2018-06-21T12:24:40.969Z,33.50
2018-06-21T12:27:08.554Z,34.10
2018-06-21T12:29:36.428Z,34.60
2018-06-21T12:32:04.195Z,34.00
2018-06-21T12:34:31.807Z,34.80
2018-06-21T12:36:59.635Z,34.00
2018-06-21T12:39:27.314Z,34.40
2018-06-21T12:41:55.025Z,35.50
2018-06-21T12:44:22.639Z,35.80
2018-06-21T12:46:50.438Z,36.40
2018-06-21T12:49:18.063Z,37.50
2018-06-21T12:51:45.802Z,38.10
2018-06-21T12:54:13.479Z,38.70
2018-06-21T12:56:41.228Z,37.60
2018-06-21T12:59:08.930Z,37.30
2018-06-21T13:01:36.683Z,37.10
2018-06-21T13:04:04.361Z,38.30
2018-06-21T13:06:31.985Z,39.00
2018-06-21T13:10:14.921Z,38.40
2018-06-21T13:12:58.497Z,38.60
2018-06-21T13:15:26.309Z,39.80
2018-06-21T13:17:54.061Z,39.70
2018-06-21T13:20:21.742Z,39.40
2018-06-21T13:22:49.401Z,39.60
2018-06-21T13:25:17.097Z,39.50
2018-06-21T13:27:44.698Z,39.60
2018-06-21T13:30:12.370Z,38.40
2018-06-21T13:32:40.042Z,38.80
2018-06-21T13:35:07.876Z,39.30
2018-06-21T13:37:35.576Z,39.30
2018-06-21T13:42:30.901Z,38.40
2018-06-21T13:44:58.766Z,37.90
2018-06-21T13:47:26.409Z,36.80
2018-06-21T13:49:54.207Z,36.80
2018-06-21T13:52:21.953Z,36.90
2018-06-21T13:54:49.723Z,37.20
2018-06-21T13:57:17.373Z,37.50
2018-06-21T13:59:45.196Z,38.70
2018-06-21T14:02:13.047Z,37.90
2018-06-21T14:04:40.836Z,37.50
2018-06-21T14:07:08.594Z,37.50
2018-06-21T14:09:36.375Z,37.00
2018-06-21T14:12:05.032Z,37.90
2018-06-21T14:14:33.058Z,38.20
2018-06-21T14:17:00.940Z,39.00
2018-06-21T14:19:28.949Z,39.40
2018-06-21T14:21:56.783Z,39.50
2018-06-21T14:24:25.388Z,39.90
2018-06-21T14:26:53.317Z,39.80
2018-06-21T14:29:21.093Z,39.70
2018-06-21T14:31:49.102Z,39.40
2018-06-21T14:34:16.704Z,39.40
2018-06-21T14:36:44.425Z,40.10
2018-06-21T14:39:12.129Z,39.60
2018-06-21T14:41:39.899Z,40.30
2018-06-21T14:44:07.721Z,40.00
2018-06-21T14:46:35.428Z,40.00
2018-06-21T14:49:03.183Z,40.70
2018-06-21T14:51:30.961Z,41.00
2018-06-21T14:53:58.666Z,41.10
2018-06-21T14:56:26.369Z,41.10
2018-06-21T14:58:54.069Z,41.00
2018-06-21T15:01:21.771Z,40.50
2018-06-21T15:03:49.745Z,41.10
2018-06-21T15:06:17.546Z,41.40
2018-06-21T15:08:45.254Z,41.60
2018-06-21T15:11:13.253Z,42.00
2018-06-21T15:13:40.988Z,41.50
2018-06-21T15:16:08.634Z,42.10
2018-06-21T15:18:36.265Z,42.80
2018-06-21T15:21:03.955Z,42.60
2018-06-21T15:23:31.597Z,42.80
2018-06-21T15:25:59.348Z,42.80
2018-06-21T15:28:26.969Z,43.40
2018-06-21T15:30:54.909Z,43.70
2018-06-21T15:33:22.681Z,44.00
2018-06-21T15:35:50.642Z,44.50
2018-06-21T15:38:24.496Z,45.00
2018-06-21T15:40:52.281Z,45.20
2018-06-21T15:43:19.954Z,45.00
2018-06-21T15:45:47.593Z,45.10
2018-06-21T15:50:42.807Z,44.80
2018-06-21T15:53:10.478Z,45.20
2018-06-21T15:55:38.141Z,45.50
2018-06-21T15:58:05.773Z,45.70
2018-06-21T16:00:33.381Z,45.80
2018-06-21T16:03:01.065Z,46.30
2018-06-21T16:05:28.791Z,46.60
2018-06-21T16:07:56.403Z,46.90
2018-06-21T16:12:51.637Z,47.00
2018-06-21T16:17:46.741Z,47.00
2018-06-21T16:20:14.402Z,46.70
2018-06-21T16:22:41.957Z,47.30
2018-06-21T16:25:26.501Z,48.10
2018-06-21T16:28:02.071Z,49.00
2018-06-21T16:30:29.758Z,49.80
2018-06-21T16:32:57.520Z,50.00
2018-06-21T16:35:25.278Z,51.30
2018-06-21T16:37:52.914Z,51.60
2018-06-21T16:40:20.573Z,51.00
2018-06-21T16:42:48.240Z,51.10
2018-06-21T16:45:15.866Z,51.70
2018-06-21T16:47:43.478Z,53.10
2018-06-21T16:50:11.210Z,53.70
2018-06-21T16:52:38.917Z,53.90
2018-06-21T16:55:06.618Z,53.70
2018-06-21T16:57:34.229Z,53.30
2018-06-21T17:00:01.805Z,52.70
2018-06-21T17:02:29.489Z,53.40
2018-06-21T17:04:57.174Z,53.60
2018-06-21T17:07:24.891Z,54.00
2018-06-21T17:09:53.290Z,53.50
2018-06-21T17:12:20.892Z,52.20
2018-06-21T17:17:22.802Z,51.00
2018-06-21T17:19:50.588Z,51.00
2018-06-21T17:22:18.350Z,52.00
2018-06-21T17:24:46.081Z,52.50
2018-06-21T17:27:13.739Z,53.30
2018-06-21T17:29:41.400Z,54.20
2018-06-21T17:32:09.101Z,55.60
2018-06-21T17:34:36.838Z,57.80
2018-06-21T17:37:05.143Z,57.00
2018-06-21T17:39:32.732Z,57.50
2018-06-21T17:42:00.510Z,57.90
2018-06-21T17:44:28.205Z,56.50
2018-06-21T17:46:56.272Z,55.90
2018-06-21T17:49:24.255Z,55.70
2018-06-21T17:51:52.195Z,55.40
2018-06-21T17:54:20.332Z,53.20
2018-06-21T17:56:48.607Z,49.80
2018-06-21T17:59:16.537Z,46.10
2018-06-21T18:01:44.582Z,46.70
2018-06-21T18:04:19.294Z,48.40
2018-06-21T18:06:47.233Z,49.60
2018-06-21T18:09:15.227Z,51.30
2018-06-21T18:11:43.162Z,52.80
2018-06-21T18:14:11.207Z,54.60
2018-06-21T18:16:39.282Z,55.80
2018-06-21T18:19:07.351Z,56.70
2018-06-21T18:21:35.266Z,56.60
2018-06-21T18:24:03.238Z,55.40
2018-06-21T18:26:31.204Z,55.70
2018-06-21T18:28:59.428Z,56.20
2018-06-21T18:31:27.357Z,57.00
2018-06-21T18:33:55.555Z,57.80
2018-06-21T18:36:23.807Z,58.00
2018-06-21T18:38:51.731Z,58.70
2018-06-21T18:41:19.731Z,59.40
2018-06-21T18:43:47.684Z,60.00
2018-06-21T18:48:43.465Z,59.90
2018-06-21T18:51:11.374Z,59.40
2018-06-21T18:53:39.267Z,59.70
2018-06-21T18:56:07.242Z,60.50
2018-06-21T18:58:35.164Z,61.10
2018-06-21T19:01:03.120Z,62.60
2018-06-21T19:03:31.149Z,63.30
2018-06-21T19:08:32.567Z,65.10
2018-06-21T19:11:06.243Z,66.10
2018-06-21T19:13:38.739Z,67.20
2018-06-21T19:16:06.843Z,68.00
2018-06-21T19:18:34.820Z,68.90
2018-06-21T19:21:03.011Z,69.20
2018-06-21T19:23:30.933Z,69.50
2018-06-21T19:25:59.028Z,69.90
2018-06-21T19:30:54.754Z,70.40
2018-06-21T19:33:22.638Z,66.20
2018-06-21T19:35:50.578Z,65.70
2018-06-21T19:38:18.478Z,65.30
2018-06-21T19:40:46.485Z,65.40
2018-06-21T19:43:14.504Z,65.70
2018-06-21T19:45:42.392Z,66.90
2018-06-21T19:48:10.303Z,68.20
2018-06-21T19:50:38.192Z,69.50
2018-06-21T19:53:06.264Z,71.30
2018-06-21T19:55:34.237Z,71.30
2018-06-21T19:58:02.236Z,72.10
2018-06-21T20:00:30.290Z,73.50
2018-06-21T20:02:58.254Z,75.10
2018-06-21T20:05:26.193Z,75.40
2018-06-21T20:07:54.197Z,75.40
2018-06-21T20:10:22.054Z,75.20
2018-06-21T20:12:50.042Z,75.20
2018-06-21T20:15:17.933Z,75.70
2018-06-21T20:17:45.942Z,76.50
2018-06-21T20:20:19.200Z,78.50
2018-06-21T20:22:47.041Z,78.40
2018-06-21T20:25:14.947Z,79.30
2018-06-21T20:27:42.862Z,80.70
2018-06-21T20:30:10.823Z,81.50
2018-06-21T20:32:38.754Z,81.80
2018-06-21T20:35:06.876Z,82.50
2018-06-21T20:37:34.902Z,83.00
2018-06-21T20:40:02.932Z,83.30
2018-06-21T20:42:30.838Z,83.70
2018-06-21T20:44:58.970Z,83.90
2018-06-21T20:47:27.153Z,84.00
2018-06-21T20:49:55.049Z,84.50
2018-06-21T20:52:30.035Z,84.80
2018-06-21T20:54:59.174Z,85.00
2018-06-21T20:57:28.142Z,84.90
2018-06-21T20:59:56.080Z,85.80
2018-06-21T21:02:24.081Z,86.00
2018-06-21T21:05:13.056Z,86.70
2018-06-21T21:07:41.519Z,87.20
2018-06-21T21:10:12.281Z,88.00
2018-06-21T21:12:40.438Z,89.10
2018-06-21T21:15:09.485Z,89.80
2018-06-21T21:17:37.405Z,90.10
2018-06-21T21:20:06.235Z,90.60
2018-06-21T21:22:34.794Z,90.60
2018-06-21T21:25:02.667Z,90.70
2018-06-21T21:27:30.500Z,90.60
2018-06-21T21:29:58.428Z,90.80
2018-06-21T21:32:27.420Z,90.90
2018-06-21T21:34:56.432Z,91.00
2018-06-21T21:37:24.696Z,91.00
2018-06-21T21:39:57.374Z,91.40
2018-06-21T21:42:25.574Z,90.60
2018-06-21T21:44:56.578Z,90.20
2018-06-21T21:49:52.544Z,90.30
2018-06-21T21:52:20.584Z,90.40
2018-06-21T21:54:48.722Z,90.00
2018-06-21T21:57:16.787Z,89.80
2018-06-21T21:59:44.850Z,90.30
2018-06-21T22:02:12.736Z,90.50
2018-06-21T22:04:40.581Z,90.80
2018-06-21T22:07:08.497Z,91.30
2018-06-21T22:12:04.604Z,91.10
2018-06-21T22:14:32.556Z,90.90
2018-06-21T22:17:00.440Z,91.30
2018-06-21T22:19:28.338Z,91.50
2018-06-21T22:21:56.281Z,91.60
2018-06-21T22:24:24.550Z,91.60
2018-06-21T22:26:52.473Z,91.90
2018-06-21T22:29:20.561Z,92.00
2018-06-21T22:31:48.539Z,92.30
2018-06-21T22:34:16.557Z,92.40
2018-06-21T22:36:44.398Z,92.70
2018-06-21T22:39:13.279Z,92.80
2018-06-21T22:41:42.389Z,92.80
2018-06-21T22:44:10.624Z,92.60
2018-06-21T22:46:38.520Z,92.30
2018-06-21T22:49:07.183Z,92.30
2018-06-21T22:51:35.317Z,92.20
2018-06-21T22:54:03.252Z,91.90
2018-06-21T22:56:31.138Z,92.10
2018-06-21T23:01:26.742Z,92.80
2018-06-21T23:03:54.666Z,93.00
2018-06-21T23:06:22.478Z,93.20
2018-06-21T23:08:50.309Z,93.40
2018-06-21T23:11:28.027Z,93.50
2018-06-21T23:13:56.039Z,93.30
2018-06-21T23:16:23.934Z,93.70
2018-06-21T23:19:03.029Z,93.60
2018-06-21T23:21:30.851Z,93.50
2018-06-21T23:23:58.726Z,93.40
2018-06-21T23:26:26.640Z,93.70
2018-06-21T23:28:54.644Z,93.70
2018-06-21T23:31:22.535Z,93.50
2018-06-21T23:33:50.557Z,93.10
2018-06-21T23:36:18.559Z,92.60
2018-06-21T23:38:46.618Z,92.50
2018-06-21T23:41:14.563Z,92.30
2018-06-21T23:43:42.510Z,92.40
2018-06-21T23:46:10.322Z,92.50
2018-06-21T23:48:38.221Z,92.80
2018-06-21T23:51:06.047Z,93.30
2018-06-21T23:53:33.964Z,93.60
2018-06-21T23:56:01.812Z,93.90
2018-06-21T23:58:29.673Z,94.10
